sensor_id;sensor_type;location;lat;lon;timestamp;P1;durP1;ratioP1;P2;durP2;ratioP2
3267;SDS011;1646;52.450;13.326;2023-07-20T00:00:17;4.73;;;4.33;;
3267;SDS011;1646;52.450;13.326;2023-07-20T00:05:16;5.43;;;4.67;;
3267;SDS011;1646;52.450;13.326;2023-07-20T00:10:19;8.13;;;4.53;;
3267;SDS011;1646;52.450;13.326;2023-07-20T00:15:17;5.23;;;4.93;;
3267;SDS011;1646;52.450;13.326;2023-07-20T00:20:15;5.97;;;5.37;;
3267;SDS011;1646;52.450;13.326;2023-07-20T00:25:14;8.30;;;5.20;;
3267;SDS011;1646;52.450;13.326;2023-07-20T00:30:14;5.03;;;4.60;;
3267;SDS011;1646;52.450;13.326;2023-07-20T00:35:12;5.37;;;4.97;;
3267;SDS011;1646;52.450;13.326;2023-07-20T00:40:11;6.80;;;6.20;;
3267;SDS011;1646;52.450;13.326;2023-07-20T00:45:10;6.10;;;5.07;;
3267;SDS011;1646;52.450;13.326;2023-07-20T00:50:09;6.03;;;5.60;;
3267;SDS011;1646;52.450;13.326;2023-07-20T00:55:08;6.00;;;5.60;;
3267;SDS011;1646;52.450;13.326;2023-07-20T01:00:07;7.70;;;5.73;;
3267;SDS011;1646;52.450;13.326;2023-07-20T01:05:07;6.23;;;5.80;;
3267;SDS011;1646;52.450;13.326;2023-07-20T01:10:08;13.53;;;6.90;;
3267;SDS011;1646;52.450;13.326;2023-07-20T01:15:11;6.40;;;5.90;;
3267;SDS011;1646;52.450;13.326;2023-07-20T01:20:27;6.43;;;5.87;;
3267;SDS011;1646;52.450;13.326;2023-07-20T01:25:34;7.00;;;6.40;;
3267;SDS011;1646;52.450;13.326;2023-07-20T01:30:48;7.40;;;6.80;;
3267;SDS011;1646;52.450;13.326;2023-07-20T01:35:55;8.60;;;7.70;;
3267;SDS011;1646;52.450;13.326;2023-07-20T01:40:57;6.53;;;5.93;;
3267;SDS011;1646;52.450;13.326;2023-07-20T01:45:56;7.20;;;6.60;;
3267;SDS011;1646;52.450;13.326;2023-07-20T01:50:55;7.70;;;7.10;;
3267;SDS011;1646;52.450;13.326;2023-07-20T01:55:54;6.57;;;5.97;;
3267;SDS011;1646;52.450;13.326;2023-07-20T02:00:52;7.20;;;6.70;;
3267;SDS011;1646;52.450;13.326;2023-07-20T02:05:50;6.83;;;6.13;;
3267;SDS011;1646;52.450;13.326;2023-07-20T02:10:50;7.07;;;6.47;;
3267;SDS011;1646;52.450;13.326;2023-07-20T02:15:49;6.60;;;6.07;;
3267;SDS011;1646;52.450;13.326;2023-07-20T02:20:47;6.63;;;6.00;;
3267;SDS011;1646;52.450;13.326;2023-07-20T02:25:46;7.80;;;6.70;;
3267;SDS011;1646;52.450;13.326;2023-07-20T02:30:46;6.83;;;6.23;;
3267;SDS011;1646;52.450;13.326;2023-07-20T02:35:46;7.07;;;6.37;;
3267;SDS011;1646;52.450;13.326;2023-07-20T02:40:44;7.03;;;6.43;;
3267;SDS011;1646;52.450;13.326;2023-07-20T02:45:43;7.10;;;6.60;;
3267;SDS011;1646;52.450;13.326;2023-07-20T02:50:44;8.87;;;7.50;;
3267;SDS011;1646;52.450;13.326;2023-07-20T02:55:43;8.40;;;7.60;;
3267;SDS011;1646;52.450;13.326;2023-07-20T03:00:42;7.90;;;7.10;;
3267;SDS011;1646;52.450;13.326;2023-07-20T03:05:40;7.80;;;7.10;;
3267;SDS011;1646;52.450;13.326;2023-07-20T03:10:41;8.60;;;7.90;;
3267;SDS011;1646;52.450;13.326;2023-07-20T03:15:39;10.60;;;8.80;;
3267;SDS011;1646;52.450;13.326;2023-07-20T03:20:38;9.73;;;8.60;;
3267;SDS011;1646;52.450;13.326;2023-07-20T03:25:37;11.50;;;10.30;;
3267;SDS011;1646;52.450;13.326;2023-07-20T03:30:38;12.13;;;10.93;;
3267;SDS011;1646;52.450;13.326;2023-07-20T03:35:37;10.13;;;9.20;;
3267;SDS011;1646;52.450;13.326;2023-07-20T03:40:36;12.30;;;10.27;;
3267;SDS011;1646;52.450;13.326;2023-07-20T03:45:34;11.50;;;10.50;;
3267;SDS011;1646;52.450;13.326;2023-07-20T03:50:34;12.77;;;10.77;;
3267;SDS011;1646;52.450;13.326;2023-07-20T03:55:32;11.80;;;10.70;;
3267;SDS011;1646;52.450;13.326;2023-07-20T04:00:31;11.40;;;10.40;;
3267;SDS011;1646;52.450;13.326;2023-07-20T04:05:29;11.50;;;10.50;;
3267;SDS011;1646;52.450;13.326;2023-07-20T04:10:29;12.30;;;11.10;;
3267;SDS011;1646;52.450;13.326;2023-07-20T04:15:27;10.17;;;9.37;;
3267;SDS011;1646;52.450;13.326;2023-07-20T04:20:25;10.60;;;9.67;;
3267;SDS011;1646;52.450;13.326;2023-07-20T04:25:24;9.63;;;8.73;;
3267;SDS011;1646;52.450;13.326;2023-07-20T04:30:23;9.17;;;8.37;;
3267;SDS011;1646;52.450;13.326;2023-07-20T04:40:58;9.03;;;8.33;;
3267;SDS011;1646;52.450;13.326;2023-07-20T04:46:00;9.70;;;8.70;;
3267;SDS011;1646;52.450;13.326;2023-07-20T04:51:02;10.03;;;8.93;;
3267;SDS011;1646;52.450;13.326;2023-07-20T04:56:00;9.87;;;9.00;;
3267;SDS011;1646;52.450;13.326;2023-07-20T05:00:59;9.60;;;8.63;;
3267;SDS011;1646;52.450;13.326;2023-07-20T05:05:59;11.37;;;10.03;;
3267;SDS011;1646;52.450;13.326;2023-07-20T05:10:59;13.40;;;11.90;;
3267;SDS011;1646;52.450;13.326;2023-07-20T05:15:57;11.90;;;8.90;;
3267;SDS011;1646;52.450;13.326;2023-07-20T05:20:57;8.77;;;8.07;;
3267;SDS011;1646;52.450;13.326;2023-07-20T05:25:56;8.87;;;8.00;;
3267;SDS011;1646;52.450;13.326;2023-07-20T05:30:54;8.50;;;7.70;;
3267;SDS011;1646;52.450;13.326;2023-07-20T05:35:53;10.43;;;7.43;;
3267;SDS011;1646;52.450;13.326;2023-07-20T05:40:58;8.70;;;7.90;;
3267;SDS011;1646;52.450;13.326;2023-07-20T05:45:58;8.67;;;7.90;;
3267;SDS011;1646;52.450;13.326;2023-07-20T05:50:56;9.13;;;8.23;;
3267;SDS011;1646;52.450;13.326;2023-07-20T05:55:56;9.57;;;8.60;;
3267;SDS011;1646;52.450;13.326;2023-07-20T06:00:54;10.80;;;7.20;;
3267;SDS011;1646;52.450;13.326;2023-07-20T06:05:57;9.40;;;8.37;;
3267;SDS011;1646;52.450;13.326;2023-07-20T06:10:59;10.57;;;7.30;;
3267;SDS011;1646;52.450;13.326;2023-07-20T06:15:57;14.33;;;8.40;;
3267;SDS011;1646;52.450;13.326;2023-07-20T06:20:56;12.47;;;9.30;;
3267;SDS011;1646;52.450;13.326;2023-07-20T06:25:54;10.07;;;9.03;;
3267;SDS011;1646;52.450;13.326;2023-07-20T06:30:59;9.63;;;8.70;;
3267;SDS011;1646;52.450;13.326;2023-07-20T06:35:58;9.53;;;8.53;;
3267;SDS011;1646;52.450;13.326;2023-07-20T06:40:57;7.80;;;7.10;;
3267;SDS011;1646;52.450;13.326;2023-07-20T06:46:17;17.10;;;8.43;;
3267;SDS011;1646;52.450;13.326;2023-07-20T06:51:15;8.50;;;7.43;;
3267;SDS011;1646;52.450;13.326;2023-07-20T06:56:14;6.37;;;5.87;;
3267;SDS011;1646;52.450;13.326;2023-07-20T07:01:13;5.03;;;4.63;;
3267;SDS011;1646;52.450;13.326;2023-07-20T07:06:13;4.43;;;4.13;;
3267;SDS011;1646;52.450;13.326;2023-07-20T07:11:11;4.00;;;3.60;;
3267;SDS011;1646;52.450;13.326;2023-07-20T07:16:10;3.57;;;3.30;;
3267;SDS011;1646;52.450;13.326;2023-07-20T07:21:08;3.47;;;2.80;;
3267;SDS011;1646;52.450;13.326;2023-07-20T07:26:08;3.23;;;1.93;;
3267;SDS011;1646;52.450;13.326;2023-07-20T07:31:06;3.10;;;2.30;;
3267;SDS011;1646;52.450;13.326;2023-07-20T07:36:05;2.20;;;2.00;;
3267;SDS011;1646;52.450;13.326;2023-07-20T07:41:03;1.80;;;1.70;;
3267;SDS011;1646;52.450;13.326;2023-07-20T07:46:03;3.23;;;1.97;;
3267;SDS011;1646;52.450;13.326;2023-07-20T07:51:01;5.93;;;1.77;;
3267;SDS011;1646;52.450;13.326;2023-07-20T07:55:59;3.40;;;1.50;;
3267;SDS011;1646;52.450;13.326;2023-07-20T08:00:59;1.90;;;1.03;;
3267;SDS011;1646;52.450;13.326;2023-07-20T08:05:59;1.83;;;1.30;;
3267;SDS011;1646;52.450;13.326;2023-07-20T08:11:01;2.63;;;1.17;;
3267;SDS011;1646;52.450;13.326;2023-07-20T08:16:07;2.07;;;1.30;;
3267;SDS011;1646;52.450;13.326;2023-07-20T08:21:07;3.10;;;1.30;;
3267;SDS011;1646;52.450;13.326;2023-07-20T08:26:05;1.07;;;0.90;;
3267;SDS011;1646;52.450;13.326;2023-07-20T08:31:05;1.53;;;1.43;;
3267;SDS011;1646;52.450;13.326;2023-07-20T08:36:04;5.03;;;1.03;;
3267;SDS011;1646;52.450;13.326;2023-07-20T08:41:08;1.20;;;1.03;;
3267;SDS011;1646;52.450;13.326;2023-07-20T08:46:07;5.13;;;1.27;;
3267;SDS011;1646;52.450;13.326;2023-07-20T08:51:06;1.47;;;0.80;;
3267;SDS011;1646;52.450;13.326;2023-07-20T08:56:04;0.80;;;0.80;;
3267;SDS011;1646;52.450;13.326;2023-07-20T09:01:05;2.53;;;0.87;;
3267;SDS011;1646;52.450;13.326;2023-07-20T09:06:22;0.90;;;0.83;;
3267;SDS011;1646;52.450;13.326;2023-07-20T09:11:22;1.10;;;0.77;;
3267;SDS011;1646;52.450;13.326;2023-07-20T09:16:23;1.83;;;0.90;;
3267;SDS011;1646;52.450;13.326;2023-07-20T09:21:21;1.30;;;1.10;;
3267;SDS011;1646;52.450;13.326;2023-07-20T09:26:20;1.07;;;0.77;;
3267;SDS011;1646;52.450;13.326;2023-07-20T09:31:19;1.73;;;0.90;;
3267;SDS011;1646;52.450;13.326;2023-07-20T09:36:20;1.63;;;1.13;;
3267;SDS011;1646;52.450;13.326;2023-07-20T09:41:41;2.77;;;0.87;;
3267;SDS011;1646;52.450;13.326;2023-07-20T09:46:43;2.63;;;0.87;;
3267;SDS011;1646;52.450;13.326;2023-07-20T09:51:46;0.70;;;0.70;;
3267;SDS011;1646;52.450;13.326;2023-07-20T09:56:46;1.30;;;0.80;;
3267;SDS011;1646;52.450;13.326;2023-07-20T10:01:46;1.90;;;0.90;;
3267;SDS011;1646;52.450;13.326;2023-07-20T10:06:48;3.57;;;1.30;;
3267;SDS011;1646;52.450;13.326;2023-07-20T10:11:49;2.20;;;1.00;;
3267;SDS011;1646;52.450;13.326;2023-07-20T10:17:08;1.93;;;1.00;;
3267;SDS011;1646;52.450;13.326;2023-07-20T10:22:12;0.83;;;0.83;;
3267;SDS011;1646;52.450;13.326;2023-07-20T10:27:12;1.07;;;1.00;;
3267;SDS011;1646;52.450;13.326;2023-07-20T10:32:11;1.67;;;0.93;;
3267;SDS011;1646;52.450;13.326;2023-07-20T10:37:11;1.40;;;0.90;;
3267;SDS011;1646;52.450;13.326;2023-07-20T10:42:49;5.90;;;1.30;;
3267;SDS011;1646;52.450;13.326;2023-07-20T10:47:47;3.90;;;1.40;;
3267;SDS011;1646;52.450;13.326;2023-07-20T10:52:57;1.10;;;1.00;;
3267;SDS011;1646;52.450;13.326;2023-07-20T10:58:08;2.73;;;1.13;;
3267;SDS011;1646;52.450;13.326;2023-07-20T11:03:08;1.23;;;0.97;;
3267;SDS011;1646;52.450;13.326;2023-07-20T11:08:10;1.57;;;1.37;;
3267;SDS011;1646;52.450;13.326;2023-07-20T11:13:16;1.57;;;1.20;;
3267;SDS011;1646;52.450;13.326;2023-07-20T11:18:16;1.20;;;1.00;;
3267;SDS011;1646;52.450;13.326;2023-07-20T11:23:17;1.10;;;1.00;;
3267;SDS011;1646;52.450;13.326;2023-07-20T11:28:17;3.00;;;1.10;;
3267;SDS011;1646;52.450;13.326;2023-07-20T11:33:15;1.67;;;1.07;;
3267;SDS011;1646;52.450;13.326;2023-07-20T11:38:13;1.00;;;1.00;;
3267;SDS011;1646;52.450;13.326;2023-07-20T11:43:13;1.50;;;0.90;;
3267;SDS011;1646;52.450;13.326;2023-07-20T11:48:15;1.77;;;0.90;;
3267;SDS011;1646;52.450;13.326;2023-07-20T11:53:13;0.80;;;0.80;;
3267;SDS011;1646;52.450;13.326;2023-07-20T11:58:14;2.33;;;1.00;;
3267;SDS011;1646;52.450;13.326;2023-07-20T12:03:13;0.90;;;0.80;;
3267;SDS011;1646;52.450;13.326;2023-07-20T12:08:11;0.70;;;0.70;;
3267;SDS011;1646;52.450;13.326;2023-07-20T12:13:10;2.60;;;1.10;;
3267;SDS011;1646;52.450;13.326;2023-07-20T12:18:10;1.00;;;0.90;;
3267;SDS011;1646;52.450;13.326;2023-07-20T12:23:09;2.30;;;0.70;;
3267;SDS011;1646;52.450;13.326;2023-07-20T12:28:10;1.77;;;1.00;;
3267;SDS011;1646;52.450;13.326;2023-07-20T12:33:11;1.67;;;0.50;;
3267;SDS011;1646;52.450;13.326;2023-07-20T12:38:12;0.80;;;0.70;;
3267;SDS011;1646;52.450;13.326;2023-07-20T12:43:11;0.70;;;0.67;;
3267;SDS011;1646;52.450;13.326;2023-07-20T12:48:09;1.47;;;0.73;;
3267;SDS011;1646;52.450;13.326;2023-07-20T12:53:09;1.33;;;0.70;;
3267;SDS011;1646;52.450;13.326;2023-07-20T12:58:07;4.60;;;1.27;;
3267;SDS011;1646;52.450;13.326;2023-07-20T13:03:06;1.07;;;0.73;;
3267;SDS011;1646;52.450;13.326;2023-07-20T13:08:06;1.10;;;0.73;;
3267;SDS011;1646;52.450;13.326;2023-07-20T13:13:08;1.93;;;0.70;;
3267;SDS011;1646;52.450;13.326;2023-07-20T13:18:06;1.03;;;0.80;;
3267;SDS011;1646;52.450;13.326;2023-07-20T13:23:05;0.90;;;0.67;;
3267;SDS011;1646;52.450;13.326;2023-07-20T13:28:04;3.33;;;0.80;;
3267;SDS011;1646;52.450;13.326;2023-07-20T13:33:04;3.80;;;0.60;;
3267;SDS011;1646;52.450;13.326;2023-07-20T13:38:03;1.83;;;0.70;;
3267;SDS011;1646;52.450;13.326;2023-07-20T13:43:01;0.80;;;0.80;;
3267;SDS011;1646;52.450;13.326;2023-07-20T13:48:01;2.00;;;0.67;;
3267;SDS011;1646;52.450;13.326;2023-07-20T13:53:02;0.60;;;0.60;;
3267;SDS011;1646;52.450;13.326;2023-07-20T13:58:04;1.43;;;0.70;;
3267;SDS011;1646;52.450;13.326;2023-07-20T14:03:03;1.00;;;0.90;;
3267;SDS011;1646;52.450;13.326;2023-07-20T14:08:05;2.20;;;0.70;;
3267;SDS011;1646;52.450;13.326;2023-07-20T14:13:03;0.70;;;0.70;;
3267;SDS011;1646;52.450;13.326;2023-07-20T14:18:01;1.60;;;0.90;;
3267;SDS011;1646;52.450;13.326;2023-07-20T14:23:01;0.83;;;0.60;;
3267;SDS011;1646;52.450;13.326;2023-07-20T14:27:59;0.80;;;0.60;;
3267;SDS011;1646;52.450;13.326;2023-07-20T14:32:58;1.00;;;0.80;;
3267;SDS011;1646;52.450;13.326;2023-07-20T14:37:57;1.73;;;0.70;;
3267;SDS011;1646;52.450;13.326;2023-07-20T14:42:56;1.47;;;0.70;;
3267;SDS011;1646;52.450;13.326;2023-07-20T14:47:54;5.50;;;0.90;;
3267;SDS011;1646;52.450;13.326;2023-07-20T14:52:53;1.00;;;0.80;;
3267;SDS011;1646;52.450;13.326;2023-07-20T14:57:53;0.60;;;0.60;;
3267;SDS011;1646;52.450;13.326;2023-07-20T15:02:51;0.70;;;0.60;;
3267;SDS011;1646;52.450;13.326;2023-07-20T15:07:52;0.60;;;0.60;;
3267;SDS011;1646;52.450;13.326;2023-07-20T15:12:52;1.40;;;0.87;;
3267;SDS011;1646;52.450;13.326;2023-07-20T15:17:51;1.63;;;0.70;;
3267;SDS011;1646;52.450;13.326;2023-07-20T15:22:50;2.50;;;0.80;;
3267;SDS011;1646;52.450;13.326;2023-07-20T15:27:49;4.83;;;1.00;;
3267;SDS011;1646;52.450;13.326;2023-07-20T15:32:50;1.33;;;1.13;;
3267;SDS011;1646;52.450;13.326;2023-07-20T15:37:51;2.03;;;1.10;;
3267;SDS011;1646;52.450;13.326;2023-07-20T15:42:49;1.20;;;0.70;;
3267;SDS011;1646;52.450;13.326;2023-07-20T15:47:51;1.93;;;0.90;;
3267;SDS011;1646;52.450;13.326;2023-07-20T15:52:49;1.00;;;0.90;;
3267;SDS011;1646;52.450;13.326;2023-07-20T15:57:48;1.50;;;0.80;;
3267;SDS011;1646;52.450;13.326;2023-07-20T16:02:47;2.40;;;0.97;;
3267;SDS011;1646;52.450;13.326;2023-07-20T16:07:46;5.53;;;0.87;;
3267;SDS011;1646;52.450;13.326;2023-07-20T16:12:45;6.60;;;0.90;;
3267;SDS011;1646;52.450;13.326;2023-07-20T16:17:43;2.30;;;0.80;;
3267;SDS011;1646;52.450;13.326;2023-07-20T16:22:42;4.10;;;0.80;;
3267;SDS011;1646;52.450;13.326;2023-07-20T16:27:41;1.00;;;0.73;;
3267;SDS011;1646;52.450;13.326;2023-07-20T16:32:40;1.93;;;0.77;;
3267;SDS011;1646;52.450;13.326;2023-07-20T16:37:39;2.03;;;1.10;;
3267;SDS011;1646;52.450;13.326;2023-07-20T16:42:38;9.80;;;1.20;;
3267;SDS011;1646;52.450;13.326;2023-07-20T16:47:40;1.13;;;0.90;;
3267;SDS011;1646;52.450;13.326;2023-07-20T16:52:39;1.20;;;0.90;;
3267;SDS011;1646;52.450;13.326;2023-07-20T16:57:37;1.93;;;1.07;;
3267;SDS011;1646;52.450;13.326;2023-07-20T17:02:36;4.93;;;1.00;;
3267;SDS011;1646;52.450;13.326;2023-07-20T17:07:35;3.83;;;0.90;;
3267;SDS011;1646;52.450;13.326;2023-07-20T17:12:34;2.70;;;0.90;;
3267;SDS011;1646;52.450;13.326;2023-07-20T17:17:34;6.93;;;1.67;;
3267;SDS011;1646;52.450;13.326;2023-07-20T17:22:33;2.50;;;1.00;;
3267;SDS011;1646;52.450;13.326;2023-07-20T17:27:33;1.20;;;1.00;;
3267;SDS011;1646;52.450;13.326;2023-07-20T17:32:35;2.90;;;1.00;;
3267;SDS011;1646;52.450;13.326;2023-07-20T17:37:33;1.60;;;0.90;;
3267;SDS011;1646;52.450;13.326;2023-07-20T17:42:37;1.57;;;1.07;;
3267;SDS011;1646;52.450;13.326;2023-07-20T17:47:39;4.13;;;1.10;;
3267;SDS011;1646;52.450;13.326;2023-07-20T17:52:37;2.40;;;1.20;;
3267;SDS011;1646;52.450;13.326;2023-07-20T17:57:37;2.97;;;1.03;;
3267;SDS011;1646;52.450;13.326;2023-07-20T18:02:36;5.60;;;1.20;;
3267;SDS011;1646;52.450;13.326;2023-07-20T18:07:36;1.17;;;1.00;;
3267;SDS011;1646;52.450;13.326;2023-07-20T18:12:38;1.17;;;0.83;;
3267;SDS011;1646;52.450;13.326;2023-07-20T18:17:37;1.43;;;0.80;;
3267;SDS011;1646;52.450;13.326;2023-07-20T18:22:36;2.90;;;1.17;;
3267;SDS011;1646;52.450;13.326;2023-07-20T18:27:34;4.27;;;1.30;;
3267;SDS011;1646;52.450;13.326;2023-07-20T18:32:35;3.13;;;0.90;;
3267;SDS011;1646;52.450;13.326;2023-07-20T18:37:33;1.90;;;0.80;;
3267;SDS011;1646;52.450;13.326;2023-07-20T18:47:32;2.20;;;0.90;;
3267;SDS011;1646;52.450;13.326;2023-07-20T18:52:32;2.07;;;0.90;;
3267;SDS011;1646;52.450;13.326;2023-07-20T18:57:31;2.17;;;0.90;;
3267;SDS011;1646;52.450;13.326;2023-07-20T19:02:29;4.50;;;1.17;;
3267;SDS011;1646;52.450;13.326;2023-07-20T19:07:28;4.97;;;0.90;;
3267;SDS011;1646;52.450;13.326;2023-07-20T19:12:27;2.10;;;1.10;;
3267;SDS011;1646;52.450;13.326;2023-07-20T19:17:26;4.20;;;1.20;;
3267;SDS011;1646;52.450;13.326;2023-07-20T19:22:26;4.10;;;1.03;;
3267;SDS011;1646;52.450;13.326;2023-07-20T19:27:24;4.70;;;1.60;;
3267;SDS011;1646;52.450;13.326;2023-07-20T19:32:26;1.37;;;0.87;;
3267;SDS011;1646;52.450;13.326;2023-07-20T19:37:25;2.93;;;1.07;;
3267;SDS011;1646;52.450;13.326;2023-07-20T19:42:23;1.10;;;1.00;;
3267;SDS011;1646;52.450;13.326;2023-07-20T19:47:21;4.10;;;1.23;;
3267;SDS011;1646;52.450;13.326;2023-07-20T19:52:21;2.40;;;1.40;;
3267;SDS011;1646;52.450;13.326;2023-07-20T19:57:20;2.93;;;1.33;;
3267;SDS011;1646;52.450;13.326;2023-07-20T20:02:21;4.30;;;1.87;;
3267;SDS011;1646;52.450;13.326;2023-07-20T20:07:22;2.50;;;1.30;;
3267;SDS011;1646;52.450;13.326;2023-07-20T20:12:20;2.30;;;1.40;;
3267;SDS011;1646;52.450;13.326;2023-07-20T20:17:21;4.17;;;1.67;;
3267;SDS011;1646;52.450;13.326;2023-07-20T20:22:21;3.93;;;1.43;;
3267;SDS011;1646;52.450;13.326;2023-07-20T20:27:38;1.50;;;1.10;;
3267;SDS011;1646;52.450;13.326;2023-07-20T20:32:37;1.13;;;1.03;;
3267;SDS011;1646;52.450;13.326;2023-07-20T20:37:40;2.50;;;1.33;;
3267;SDS011;1646;52.450;13.326;2023-07-20T20:42:39;1.10;;;1.00;;
3267;SDS011;1646;52.450;13.326;2023-07-20T20:47:37;1.63;;;1.33;;
3267;SDS011;1646;52.450;13.326;2023-07-20T20:52:35;2.60;;;1.20;;
3267;SDS011;1646;52.450;13.326;2023-07-20T20:57:35;2.23;;;1.60;;
3267;SDS011;1646;52.450;13.326;2023-07-20T21:02:34;1.70;;;1.20;;
3267;SDS011;1646;52.450;13.326;2023-07-20T21:07:32;3.70;;;1.60;;
3267;SDS011;1646;52.450;13.326;2023-07-20T21:12:30;1.80;;;1.30;;
3267;SDS011;1646;52.450;13.326;2023-07-20T21:17:31;2.37;;;1.37;;
3267;SDS011;1646;52.450;13.326;2023-07-20T21:22:29;2.47;;;1.53;;
3267;SDS011;1646;52.450;13.326;2023-07-20T21:27:28;4.30;;;2.03;;
3267;SDS011;1646;52.450;13.326;2023-07-20T21:32:26;2.47;;;1.63;;
3267;SDS011;1646;52.450;13.326;2023-07-20T21:37:26;2.03;;;1.50;;
3267;SDS011;1646;52.450;13.326;2023-07-20T21:42:24;2.70;;;1.57;;
3267;SDS011;1646;52.450;13.326;2023-07-20T21:47:22;3.37;;;1.53;;
3267;SDS011;1646;52.450;13.326;2023-07-20T21:52:21;2.57;;;1.70;;
3267;SDS011;1646;52.450;13.326;2023-07-20T21:57:21;3.50;;;1.37;;
3267;SDS011;1646;52.450;13.326;2023-07-20T22:02:19;2.40;;;1.63;;
3267;SDS011;1646;52.450;13.326;2023-07-20T22:07:18;1.57;;;1.40;;
3267;SDS011;1646;52.450;13.326;2023-07-20T22:12:17;1.87;;;1.40;;
3267;SDS011;1646;52.450;13.326;2023-07-20T22:17:16;2.40;;;1.47;;
3267;SDS011;1646;52.450;13.326;2023-07-20T22:22:17;5.53;;;1.60;;
3267;SDS011;1646;52.450;13.326;2023-07-20T22:27:15;2.07;;;1.60;;
3267;SDS011;1646;52.450;13.326;2023-07-20T22:32:13;2.50;;;1.43;;
3267;SDS011;1646;52.450;13.326;2023-07-20T22:37:13;3.83;;;1.50;;
3267;SDS011;1646;52.450;13.326;2023-07-20T22:42:11;3.97;;;1.97;;
3267;SDS011;1646;52.450;13.326;2023-07-20T22:47:10;4.33;;;2.00;;
3267;SDS011;1646;52.450;13.326;2023-07-20T22:52:08;2.40;;;1.97;;
3267;SDS011;1646;52.450;13.326;2023-07-20T22:57:08;1.90;;;1.70;;
3267;SDS011;1646;52.450;13.326;2023-07-20T23:02:07;2.57;;;1.97;;
3267;SDS011;1646;52.450;13.326;2023-07-20T23:07:06;3.43;;;1.70;;
3267;SDS011;1646;52.450;13.326;2023-07-20T23:12:04;1.70;;;1.60;;
3267;SDS011;1646;52.450;13.326;2023-07-20T23:17:04;3.80;;;1.93;;
3267;SDS011;1646;52.450;13.326;2023-07-20T23:22:05;2.77;;;1.70;;
3267;SDS011;1646;52.450;13.326;2023-07-20T23:27:04;7.23;;;1.60;;
3267;SDS011;1646;52.450;13.326;2023-07-20T23:32:04;2.80;;;1.30;;
3267;SDS011;1646;52.450;13.326;2023-07-20T23:37:04;4.80;;;1.60;;
3267;SDS011;1646;52.450;13.326;2023-07-20T23:42:02;1.80;;;1.43;;
3267;SDS011;1646;52.450;13.326;2023-07-20T23:47:05;1.50;;;1.10;;
3267;SDS011;1646;52.450;13.326;2023-07-20T23:52:06;2.50;;;1.20;;
3267;SDS011;1646;52.450;13.326;2023-07-20T23:57:04;5.30;;;1.63;;
